createdAt,value
2022-12-19T00:00:33.471Z,9.57
2022-12-19T00:03:01.728Z,9.32
2022-12-19T00:05:30.011Z,9.40
2022-12-19T00:07:58.948Z,9.48
2022-12-19T00:10:29.989Z,8.85
2022-12-19T00:12:58.143Z,10.13
2022-12-19T00:15:27.977Z,10.57
2022-12-19T00:17:56.173Z,9.60
2022-12-19T00:20:24.370Z,10.83
2022-12-19T00:22:52.605Z,9.70
2022-12-19T00:25:20.784Z,9.43
2022-12-19T00:27:50.209Z,10.13
2022-12-19T00:30:18.827Z,9.52
2022-12-19T00:32:48.795Z,9.27
2022-12-19T00:35:17.550Z,9.20
2022-12-19T00:37:49.657Z,8.65
2022-12-19T00:40:18.587Z,8.80
2022-12-19T00:42:53.255Z,9.50
2022-12-19T00:45:22.043Z,9.40
2022-12-19T00:47:51.573Z,9.07
2022-12-19T00:50:19.763Z,9.10
2022-12-19T00:52:48.394Z,9.18
2022-12-19T00:55:19.378Z,9.23
2022-12-19T00:57:49.221Z,9.90
2022-12-19T01:00:18.413Z,9.60
2022-12-19T01:02:46.876Z,9.70
2022-12-19T01:05:16.768Z,8.97
2022-12-19T01:07:44.987Z,8.50
2022-12-19T01:10:13.230Z,9.30
2022-12-19T01:12:46.149Z,9.40
2022-12-19T01:15:15.448Z,8.98
2022-12-19T01:17:45.053Z,9.13
2022-12-19T01:20:17.631Z,9.50
2022-12-19T01:22:49.455Z,8.80
2022-12-19T01:25:18.743Z,9.68
2022-12-19T01:27:47.008Z,9.80
2022-12-19T01:30:15.391Z,10.00
2022-12-19T01:32:43.583Z,9.85
2022-12-19T01:35:19.788Z,9.15
2022-12-19T01:37:51.826Z,9.88
2022-12-19T01:40:24.559Z,9.90
2022-12-19T01:42:52.924Z,9.02
2022-12-19T01:45:33.430Z,8.70
2022-12-19T01:48:15.036Z,9.40
2022-12-19T01:50:56.995Z,9.40
2022-12-19T01:53:48.515Z,10.25
2022-12-19T01:56:20.589Z,9.45
2022-12-19T01:59:01.767Z,9.02
2022-12-19T02:01:40.880Z,9.65
2022-12-19T02:04:20.974Z,9.10
2022-12-19T02:06:50.221Z,9.37
2022-12-19T02:09:20.168Z,9.45
2022-12-19T02:11:53.155Z,9.10
2022-12-19T02:14:22.030Z,9.40
2022-12-19T02:17:00.352Z,9.60
2022-12-19T02:20:03.863Z,9.02
2022-12-19T02:22:45.326Z,9.40
2022-12-19T02:25:44.039Z,9.80
2022-12-19T02:28:34.024Z,9.82
2022-12-19T02:31:16.398Z,8.57
2022-12-19T02:33:55.608Z,8.68
2022-12-19T02:36:35.802Z,8.70
2022-12-19T02:39:10.972Z,8.25
2022-12-19T02:41:44.354Z,7.97
2022-12-19T02:44:25.039Z,8.85
2022-12-19T02:46:55.433Z,9.30
2022-12-19T02:49:30.922Z,8.77
2022-12-19T02:52:10.596Z,8.23
2022-12-19T02:54:44.791Z,8.30
2022-12-19T02:57:21.377Z,9.00
2022-12-19T03:00:03.345Z,9.10
2022-12-19T03:02:46.568Z,8.03
2022-12-19T03:05:32.558Z,8.68
2022-12-19T03:08:08.103Z,8.55
2022-12-19T03:10:41.990Z,8.27
2022-12-19T03:13:13.842Z,8.00
2022-12-19T03:15:43.159Z,8.13
2022-12-19T03:18:13.051Z,8.10
2022-12-19T03:20:47.010Z,8.00
2022-12-19T03:23:15.912Z,8.30
2022-12-19T03:25:48.362Z,8.57
2022-12-19T03:28:22.922Z,8.52
2022-12-19T03:30:51.654Z,8.88
2022-12-19T03:33:23.231Z,7.50
2022-12-19T03:35:53.483Z,7.87
2022-12-19T03:38:22.802Z,8.10
2022-12-19T03:40:52.052Z,7.20
2022-12-19T03:43:21.192Z,8.02
2022-12-19T03:45:58.467Z,8.60
2022-12-19T03:48:34.297Z,7.20
2022-12-19T03:51:10.593Z,7.38
2022-12-19T03:53:49.158Z,8.35
2022-12-19T03:56:26.708Z,8.82
2022-12-19T03:59:01.524Z,8.38
2022-12-19T04:01:30.554Z,7.80
2022-12-19T04:04:01.477Z,7.90
2022-12-19T04:06:32.681Z,7.80
2022-12-19T04:09:01.926Z,7.70
2022-12-19T04:11:41.830Z,8.10
2022-12-19T04:14:13.498Z,8.90
2022-12-19T04:16:48.012Z,8.45
2022-12-19T04:19:23.118Z,8.60
2022-12-19T04:21:57.614Z,8.00
2022-12-19T04:24:30.428Z,8.27
2022-12-19T04:26:59.897Z,8.00
2022-12-19T04:29:30.088Z,8.93
2022-12-19T04:31:58.707Z,9.10
2022-12-19T04:34:28.376Z,7.93
2022-12-19T04:36:56.706Z,8.68
2022-12-19T04:39:24.983Z,8.13
2022-12-19T04:41:54.693Z,8.73
2022-12-19T04:44:23.389Z,7.67
2022-12-19T04:46:51.759Z,7.90
2022-12-19T04:49:20.437Z,7.00
2022-12-19T04:51:50.095Z,8.43
2022-12-19T04:54:18.470Z,8.48
2022-12-19T04:56:46.796Z,7.90
2022-12-19T04:59:15.007Z,7.88
2022-12-19T05:01:43.282Z,8.55
2022-12-19T05:04:11.723Z,7.88
2022-12-19T05:06:39.972Z,8.47
2022-12-19T05:09:11.707Z,9.00
2022-12-19T05:11:40.103Z,8.40
2022-12-19T05:14:08.380Z,8.45
2022-12-19T05:16:36.553Z,8.63
2022-12-19T05:19:04.775Z,8.00
2022-12-19T05:21:33.056Z,9.38
2022-12-19T05:24:01.247Z,8.03
2022-12-19T05:26:30.888Z,8.70
2022-12-19T05:28:59.087Z,8.73
2022-12-19T05:31:27.819Z,8.68
2022-12-19T05:33:56.419Z,8.80
2022-12-19T05:36:30.694Z,9.25
2022-12-19T05:39:00.692Z,8.32
2022-12-19T05:41:30.274Z,8.60
2022-12-19T05:43:58.559Z,8.52
2022-12-19T05:46:27.432Z,8.50
2022-12-19T05:48:55.856Z,8.82
2022-12-19T05:51:24.538Z,7.65
2022-12-19T05:53:52.755Z,8.60
2022-12-19T05:56:22.734Z,8.20
2022-12-19T05:58:52.386Z,7.10
2022-12-19T06:01:22.757Z,7.05
2022-12-19T06:03:51.196Z,6.90
2022-12-19T06:06:20.919Z,7.63
2022-12-19T06:08:49.344Z,7.18
2022-12-19T06:11:17.579Z,7.22
2022-12-19T06:13:45.758Z,7.75
2022-12-19T06:16:16.769Z,6.85
2022-12-19T06:18:46.193Z,6.90
2022-12-19T06:21:16.573Z,7.13
2022-12-19T06:23:45.911Z,7.50
2022-12-19T06:26:19.522Z,7.00
2022-12-19T06:28:48.667Z,6.50
2022-12-19T06:31:18.830Z,7.07
2022-12-19T06:33:47.069Z,6.68
2022-12-19T06:36:19.789Z,6.60
2022-12-19T06:38:47.988Z,6.55
2022-12-19T06:41:34.404Z,7.43
2022-12-19T06:44:04.822Z,6.80
2022-12-19T06:46:35.256Z,7.00
2022-12-19T06:49:03.886Z,6.80
2022-12-19T06:51:32.337Z,6.40
2022-12-19T06:54:00.576Z,6.07
2022-12-19T06:56:29.147Z,5.63
2022-12-19T06:58:57.426Z,6.18
2022-12-19T07:01:42.019Z,6.10
2022-12-19T07:04:13.492Z,6.07
2022-12-19T07:06:47.352Z,5.32
2022-12-19T07:09:17.258Z,5.45
2022-12-19T07:11:45.486Z,6.40
2022-12-19T07:14:13.694Z,5.60
2022-12-19T07:16:43.631Z,6.30
2022-12-19T07:19:12.593Z,5.53
2022-12-19T07:21:42.214Z,6.22
2022-12-19T07:24:11.319Z,5.50
2022-12-19T07:26:39.811Z,5.10
2022-12-19T07:29:08.373Z,5.80
2022-12-19T07:31:36.901Z,5.43
2022-12-19T07:34:06.627Z,6.40
2022-12-19T07:36:34.924Z,5.07
2022-12-19T07:39:03.218Z,6.10
2022-12-19T07:41:31.834Z,5.03
2022-12-19T07:44:00.661Z,5.60
2022-12-19T07:46:30.919Z,5.90
2022-12-19T07:49:02.073Z,6.05
2022-12-19T07:51:31.697Z,5.60
2022-12-19T07:53:59.924Z,6.03
2022-12-19T07:56:28.779Z,5.90
2022-12-19T07:58:57.154Z,6.70
2022-12-19T08:01:25.555Z,6.32
2022-12-19T08:03:57.047Z,6.10
2022-12-19T08:06:26.835Z,6.50
2022-12-19T08:08:57.109Z,6.78
2022-12-19T08:11:27.822Z,6.60
2022-12-19T08:13:56.354Z,6.20
2022-12-19T08:16:27.732Z,6.13
2022-12-19T08:18:56.687Z,6.15
2022-12-19T08:21:25.802Z,6.20
2022-12-19T08:23:54.215Z,6.10
2022-12-19T08:26:26.303Z,5.95
2022-12-19T08:28:55.538Z,5.40
2022-12-19T08:31:25.680Z,6.00
2022-12-19T08:33:54.965Z,6.10
2022-12-19T08:36:23.662Z,6.87
2022-12-19T08:38:52.212Z,6.30
2022-12-19T08:41:20.850Z,7.05
2022-12-19T08:43:52.731Z,6.47
2022-12-19T08:46:22.165Z,6.63
2022-12-19T08:48:50.998Z,6.63
2022-12-19T08:51:19.931Z,6.35
2022-12-19T08:53:48.421Z,6.90
2022-12-19T08:56:18.420Z,6.78
2022-12-19T08:58:47.163Z,7.00
2022-12-19T09:01:19.945Z,6.80
2022-12-19T09:04:24.377Z,6.80
2022-12-19T09:06:37.760Z,6.25
2022-12-19T09:09:06.811Z,6.55
2022-12-19T09:11:36.230Z,6.60
2022-12-19T09:14:20.817Z,6.20
2022-12-19T09:16:51.192Z,6.40
2022-12-19T09:19:19.618Z,6.43
2022-12-19T09:21:47.825Z,7.32
2022-12-19T09:24:16.028Z,6.13
2022-12-19T09:26:45.690Z,6.30
2022-12-19T09:29:19.940Z,6.57
2022-12-19T09:31:56.378Z,6.18
2022-12-19T09:34:37.073Z,7.00
2022-12-19T09:37:07.724Z,6.15
2022-12-19T09:39:36.817Z,6.10
2022-12-19T09:42:22.155Z,5.93
2022-12-19T09:45:21.245Z,6.28
2022-12-19T09:48:01.832Z,6.43
2022-12-19T09:50:43.477Z,6.07
2022-12-19T09:53:20.506Z,6.22
2022-12-19T09:55:50.442Z,7.57
2022-12-19T09:58:29.019Z,7.03
2022-12-19T10:00:59.953Z,7.10
2022-12-19T10:03:39.153Z,7.47
2022-12-19T10:07:20.591Z,7.50
2022-12-19T10:10:36.268Z,7.72
2022-12-19T10:12:39.327Z,7.43
2022-12-19T10:15:09.848Z,7.15
2022-12-19T10:17:59.543Z,7.10
2022-12-19T10:20:32.993Z,6.10
2022-12-19T10:23:17.613Z,6.00
2022-12-19T10:25:53.633Z,6.50
2022-12-19T10:28:39.105Z,5.93
2022-12-19T10:31:21.408Z,5.97
2022-12-19T10:33:56.947Z,6.45
2022-12-19T10:36:49.148Z,5.68
2022-12-19T10:39:25.754Z,5.65
2022-12-19T10:42:00.283Z,5.75
2022-12-19T10:44:30.592Z,5.50
2022-12-19T10:46:58.917Z,5.55
2022-12-19T10:49:28.826Z,5.30
2022-12-19T10:52:03.346Z,5.10
2022-12-19T10:54:44.004Z,5.45
2022-12-19T10:57:20.205Z,5.43
2022-12-19T10:59:57.280Z,5.25
2022-12-19T11:02:36.656Z,5.50
2022-12-19T11:05:06.884Z,6.07
2022-12-19T11:07:36.589Z,6.55
2022-12-19T11:11:03.945Z,5.60
2022-12-19T11:16:46.539Z,5.30
2022-12-19T11:21:06.082Z,5.43
2022-12-19T11:29:16.903Z,5.40
2022-12-19T11:29:32.070Z,5.20
2022-12-19T11:29:43.287Z,4.80
2022-12-19T11:30:06.371Z,4.80
2022-12-19T11:33:20.061Z,4.90
2022-12-19T11:35:51.220Z,5.20
2022-12-19T11:38:28.047Z,5.35
2022-12-19T11:41:00.147Z,5.20
2022-12-19T11:43:48.279Z,5.60
2022-12-19T11:46:27.987Z,5.00
2022-12-19T11:49:00.903Z,5.10
2022-12-19T11:51:35.843Z,5.10
2022-12-19T11:54:13.258Z,4.13
2022-12-19T11:56:43.170Z,4.83
2022-12-19T11:59:19.678Z,5.20
2022-12-19T12:02:10.077Z,5.13
2022-12-19T12:05:09.307Z,4.88
2022-12-19T12:08:55.198Z,4.20
2022-12-19T12:14:06.242Z,4.75
2022-12-19T12:20:22.763Z,5.57
2022-12-19T12:26:38.724Z,5.40
2022-12-19T12:31:04.927Z,4.90
2022-12-19T12:31:32.067Z,4.40
2022-12-19T12:31:41.322Z,4.55
2022-12-19T12:31:43.410Z,4.05
2022-12-19T12:35:38.454Z,4.90
2022-12-19T12:37:15.816Z,4.77
2022-12-19T12:41:11.308Z,4.47
2022-12-19T12:43:56.087Z,4.40
2022-12-19T12:46:29.860Z,4.40
2022-12-19T12:49:04.163Z,4.43
2022-12-19T12:51:33.999Z,4.50
2022-12-19T12:54:07.501Z,4.40
2022-12-19T12:56:37.060Z,3.80
2022-12-19T12:59:21.056Z,3.42
2022-12-19T13:01:55.910Z,3.88
2022-12-19T13:04:31.545Z,3.70
2022-12-19T13:07:16.162Z,3.97
2022-12-19T13:09:44.907Z,3.73
2022-12-19T13:12:39.001Z,4.00
2022-12-19T13:15:39.721Z,3.50
2022-12-19T13:18:38.801Z,4.00
2022-12-19T13:21:10.079Z,3.90
2022-12-19T13:23:47.733Z,3.70
2022-12-19T13:26:39.066Z,3.92
2022-12-19T13:29:30.960Z,3.67
2022-12-19T13:32:20.319Z,4.20
2022-12-19T13:35:06.925Z,4.88
2022-12-19T13:39:54.163Z,4.28
2022-12-19T13:40:56.683Z,4.07
2022-12-19T13:43:47.420Z,4.30
2022-12-19T13:46:39.563Z,4.30
2022-12-19T13:49:11.938Z,3.88
2022-12-19T13:51:48.675Z,3.50
2022-12-19T13:54:22.924Z,4.07
2022-12-19T13:56:51.821Z,3.90
2022-12-19T13:59:22.606Z,4.30
2022-12-19T14:01:53.220Z,4.20
2022-12-19T14:04:29.350Z,4.03
2022-12-19T14:07:02.624Z,3.72
2022-12-19T14:11:28.916Z,3.72
2022-12-19T14:13:56.861Z,4.32
2022-12-19T14:15:35.879Z,3.58
2022-12-19T14:18:42.857Z,4.00
2022-12-19T14:22:04.004Z,3.60
2022-12-19T14:24:17.832Z,3.30
2022-12-19T14:28:24.348Z,3.80
2022-12-19T14:30:26.491Z,3.40
2022-12-19T14:33:44.776Z,4.43
2022-12-19T14:36:05.844Z,3.60
2022-12-19T14:39:22.890Z,4.70
2022-12-19T14:41:38.052Z,4.60
2022-12-19T14:52:34.730Z,4.00
2022-12-19T14:54:10.929Z,4.65
2022-12-19T14:54:15.600Z,4.50
2022-12-19T14:54:38.005Z,4.35
2022-12-19T14:56:13.011Z,4.70
2022-12-19T14:58:54.153Z,4.45
2022-12-19T15:01:25.717Z,4.82
2022-12-19T15:04:48.340Z,4.78
2022-12-19T15:07:07.657Z,4.38
2022-12-19T15:11:06.714Z,4.20
2022-12-19T15:14:51.282Z,4.00
2022-12-19T15:15:46.193Z,4.07
2022-12-19T15:18:24.314Z,5.10
2022-12-19T15:20:53.589Z,4.60
2022-12-19T15:23:22.921Z,4.35
2022-12-19T15:26:08.770Z,4.60
2022-12-19T15:28:42.891Z,4.82
2022-12-19T15:31:26.966Z,3.80
2022-12-19T15:36:43.859Z,3.97
2022-12-19T15:39:12.183Z,4.00
2022-12-19T15:41:40.596Z,4.28
2022-12-19T15:44:11.243Z,4.28
2022-12-19T15:46:48.177Z,4.05
2022-12-19T15:49:17.707Z,4.18
2022-12-19T15:51:45.962Z,4.10
2022-12-19T15:54:47.141Z,3.87
2022-12-19T15:57:02.967Z,3.50
2022-12-19T15:59:37.333Z,4.07
2022-12-19T16:02:17.550Z,4.60
2022-12-19T16:04:48.091Z,4.78
2022-12-19T16:07:17.940Z,5.15
2022-12-19T16:09:47.088Z,4.50
2022-12-19T16:12:17.847Z,4.20
2022-12-19T16:14:47.282Z,4.20
2022-12-19T16:17:21.310Z,4.20
2022-12-19T16:19:51.181Z,3.90
2022-12-19T16:22:21.149Z,3.90
2022-12-19T16:24:50.015Z,4.40
2022-12-19T16:27:25.410Z,4.20
2022-12-19T16:29:54.544Z,3.80
2022-12-19T16:32:25.585Z,4.38
2022-12-19T16:34:54.456Z,4.10
2022-12-19T16:37:25.825Z,4.15
2022-12-19T16:39:58.609Z,3.80
2022-12-19T16:42:28.403Z,4.15
2022-12-19T16:44:56.797Z,4.37
2022-12-19T16:47:26.504Z,3.85
2022-12-19T16:49:55.025Z,4.13
2022-12-19T16:52:23.400Z,4.40
2022-12-19T16:54:51.602Z,4.50
2022-12-19T16:57:22.550Z,4.30
2022-12-19T16:59:51.642Z,4.40
2022-12-19T17:02:40.106Z,3.90
2022-12-19T17:05:15.350Z,3.60
2022-12-19T17:07:43.629Z,3.00
2022-12-19T17:10:12.278Z,3.30
2022-12-19T17:12:41.233Z,2.70
2022-12-19T17:15:18.825Z,2.60
2022-12-19T17:17:50.014Z,3.00
2022-12-19T17:20:21.903Z,2.90
2022-12-19T17:22:50.866Z,2.90
2022-12-19T17:25:22.957Z,3.00
2022-12-19T17:27:51.844Z,3.20
2022-12-19T17:30:21.160Z,3.70
2022-12-19T17:32:53.380Z,2.70
2022-12-19T17:35:27.721Z,2.60
2022-12-19T17:37:58.404Z,2.80
2022-12-19T17:40:28.789Z,2.70
2022-12-19T17:42:57.408Z,2.80
2022-12-19T17:45:27.827Z,2.60
2022-12-19T17:48:03.119Z,3.20
2022-12-19T17:50:35.757Z,3.33
2022-12-19T17:53:04.484Z,3.00
2022-12-19T17:55:33.642Z,3.03
2022-12-19T17:58:01.988Z,2.90
2022-12-19T18:00:32.953Z,3.10
2022-12-19T18:03:06.632Z,3.10
2022-12-19T18:05:36.999Z,2.63
2022-12-19T18:08:07.894Z,2.80
2022-12-19T18:10:36.273Z,2.50
2022-12-19T18:13:05.621Z,2.80
2022-12-19T18:15:33.861Z,2.85
2022-12-19T18:18:03.412Z,2.67
2022-12-19T18:20:33.583Z,3.00
2022-12-19T18:23:02.485Z,3.70
2022-12-19T18:25:35.232Z,3.65
2022-12-19T18:28:04.107Z,3.20
2022-12-19T18:30:32.441Z,3.40
2022-12-19T18:33:04.211Z,2.80
2022-12-19T18:35:35.026Z,3.10
2022-12-19T18:38:07.009Z,3.60
2022-12-19T18:40:35.382Z,3.07
2022-12-19T18:43:03.582Z,3.15
2022-12-19T18:45:36.443Z,3.00
2022-12-19T18:48:08.430Z,3.00
2022-12-19T18:50:36.888Z,3.45
2022-12-19T18:53:12.250Z,3.83
2022-12-19T18:55:40.692Z,3.00
2022-12-19T18:58:08.929Z,3.67
2022-12-19T19:00:39.873Z,3.40
2022-12-19T19:03:15.837Z,3.15
2022-12-19T19:05:44.586Z,2.80
2022-12-19T19:08:18.007Z,3.10
2022-12-19T19:10:53.016Z,2.90
2022-12-19T19:13:23.327Z,2.60
2022-12-19T19:15:53.871Z,2.90
2022-12-19T19:18:29.872Z,2.90
2022-12-19T19:21:01.267Z,3.10
2022-12-19T19:23:34.606Z,2.95
2022-12-19T19:26:02.979Z,2.90
2022-12-19T19:28:31.251Z,2.40
2022-12-19T19:31:01.639Z,2.80
2022-12-19T19:33:34.401Z,2.42
2022-12-19T19:36:12.129Z,2.65
2022-12-19T19:38:42.269Z,2.58
2022-12-19T19:41:10.703Z,2.75
2022-12-19T19:43:39.267Z,2.50
2022-12-19T19:46:07.533Z,3.20
2022-12-19T19:48:37.225Z,4.00
2022-12-19T19:51:05.811Z,3.72
2022-12-19T19:53:36.018Z,3.35
2022-12-19T19:56:04.940Z,3.25
2022-12-19T19:58:33.285Z,3.20
2022-12-19T20:01:01.673Z,2.63
2022-12-19T20:03:30.152Z,2.60
2022-12-19T20:06:03.233Z,2.58
2022-12-19T20:08:38.851Z,2.60
2022-12-19T20:11:09.228Z,2.70
2022-12-19T20:13:39.140Z,2.50
2022-12-19T20:16:10.209Z,2.60
2022-12-19T20:18:39.914Z,2.67
2022-12-19T20:21:13.599Z,2.75
2022-12-19T20:23:43.519Z,2.72
2022-12-19T20:26:12.954Z,2.30
2022-12-19T20:28:48.310Z,2.08
2022-12-19T20:31:17.259Z,2.40
2022-12-19T20:33:46.246Z,2.30
2022-12-19T20:36:17.674Z,2.10
2022-12-19T20:38:46.158Z,2.35
2022-12-19T20:41:14.621Z,2.40
2022-12-19T20:43:43.232Z,2.20
2022-12-19T20:46:13.093Z,2.03
2022-12-19T20:48:42.008Z,1.73
2022-12-19T20:51:10.982Z,2.10
2022-12-19T20:53:41.684Z,2.30
2022-12-19T20:56:13.866Z,1.95
2022-12-19T20:58:42.193Z,1.80
2022-12-19T21:01:12.450Z,40.13
2022-12-19T21:03:41.545Z,32.30
2022-12-19T21:06:12.282Z,12.27
2022-12-19T21:08:42.324Z,9.60
2022-12-19T21:11:11.447Z,3.30
2022-12-19T21:13:41.090Z,4.43
2022-12-19T21:16:11.974Z,4.40
2022-12-19T21:18:42.153Z,4.30
2022-12-19T21:21:13.611Z,3.60
2022-12-19T21:23:43.607Z,4.03
2022-12-19T21:26:12.109Z,3.05
2022-12-19T21:28:40.579Z,2.70
2022-12-19T21:31:14.509Z,2.30
2022-12-19T21:33:42.907Z,2.30
2022-12-19T21:36:14.183Z,2.50
2022-12-19T21:38:43.899Z,2.40
2022-12-19T21:41:18.513Z,2.10
2022-12-19T21:43:48.715Z,2.25
2022-12-19T21:46:18.232Z,2.40
2022-12-19T21:48:48.317Z,2.30
2022-12-19T21:51:18.556Z,2.20
2022-12-19T21:53:48.460Z,2.40
2022-12-19T21:56:24.718Z,2.20
2022-12-19T21:58:54.687Z,2.10
2022-12-19T22:01:23.393Z,1.90
2022-12-19T22:03:52.563Z,2.40
2022-12-19T22:06:28.292Z,2.10
2022-12-19T22:08:58.521Z,2.30
2022-12-19T22:11:27.279Z,2.28
2022-12-19T22:13:55.810Z,2.20
2022-12-19T22:16:24.148Z,2.20
2022-12-19T22:18:53.096Z,2.00
2022-12-19T22:21:22.309Z,2.00
2022-12-19T22:23:50.862Z,1.98
2022-12-19T22:26:22.375Z,2.00
2022-12-19T22:28:52.524Z,2.05
2022-12-19T22:31:23.613Z,2.00
2022-12-19T22:33:53.696Z,1.90
2022-12-19T22:36:27.988Z,2.05
2022-12-19T22:38:57.893Z,1.90
2022-12-19T22:41:28.205Z,2.07
2022-12-19T22:43:57.104Z,2.27
2022-12-19T22:46:27.324Z,1.88
2022-12-19T22:48:58.140Z,2.00
2022-12-19T22:51:27.528Z,2.20
2022-12-19T22:53:56.055Z,1.80
2022-12-19T22:56:26.482Z,1.95
2022-12-19T22:58:57.818Z,2.50
2022-12-19T23:01:27.770Z,2.00
2022-12-19T23:03:57.503Z,2.37
2022-12-19T23:06:27.345Z,2.10
2022-12-19T23:08:55.797Z,2.10
2022-12-19T23:11:26.899Z,2.00
2022-12-19T23:13:56.661Z,2.00
2022-12-19T23:16:24.983Z,2.00
2022-12-19T23:18:53.243Z,1.95
2022-12-19T23:21:23.577Z,1.90
2022-12-19T23:23:53.952Z,1.70
2022-12-19T23:26:25.172Z,2.17
2022-12-19T23:28:55.554Z,1.90
2022-12-19T23:31:25.994Z,1.70
2022-12-19T23:33:54.899Z,1.75
2022-12-19T23:36:44.959Z,1.60
2022-12-19T23:39:11.982Z,1.83
2022-12-19T23:41:40.856Z,1.70
2022-12-19T23:44:09.310Z,1.50
2022-12-19T23:46:40.227Z,2.20
2022-12-19T23:49:08.610Z,1.55
2022-12-19T23:51:36.858Z,1.60
2022-12-19T23:54:05.262Z,1.70
2022-12-19T23:56:34.129Z,1.80
2022-12-19T23:59:03.103Z,1.80
